Time;durP1;ratioP1;P1;durP2;ratioP2;P2;SDS_P1;SDS_P2;PMS_P1;PMS_P2;Temp;Humidity;BMP_temperature;BMP_pressure;BME280_temperature;BME280_humidity;BME280_pressure;Samples;Min_cycle;Max_cycle;Signal;HPM_P1;HPM_P2
2021/07/19 00:02:16;;;;;;;2.90;1.27;;;21.50;73.80;;;;;;2236290;56;21030;-71
2021/07/19 00:04:44;;;;;;;3.97;1.12;;;21.50;73.80;;;;;;2247358;56;20999;-74
2021/07/19 00:07:13;;;;;;;2.90;1.23;;;21.50;73.90;;;;;;2303017;56;20958;-70
2021/07/19 00:09:46;;;;;;;2.90;1.40;;;21.50;73.80;;;;;;2241803;56;21789;-71
2021/07/19 00:12:14;;;;;;;5.25;1.40;;;21.40;73.90;;;;;;2238396;56;20977;-71
2021/07/19 00:14:40;;;;;;;3.05;1.37;;;21.40;73.90;;;;;;2238421;56;21006;-71
2021/07/19 00:17:06;;;;;;;3.28;1.60;;;21.40;74.00;;;;;;2241461;56;20962;-73
2021/07/19 00:19:34;;;;;;;2.70;1.27;;;21.30;74.00;;;;;;2232996;56;21404;-72
2021/07/19 00:22:04;;;;;;;3.50;1.60;;;21.30;74.10;;;;;;2241667;56;20974;-71
2021/07/19 00:24:30;;;;;;;4.47;1.58;;;21.30;74.00;;;;;;2460298;56;20994;-71
2021/07/19 00:26:56;;;;;;;2.92;1.50;;;21.20;73.90;;;;;;2239905;55;21026;-72
2021/07/19 00:29:25;;;;;;;2.90;1.50;;;21.20;74.10;;;;;;2240681;56;20939;-70
2021/07/19 00:31:52;;;;;;;2.83;1.35;;;21.20;74.00;;;;;;2239165;56;20961;-72
2021/07/19 00:34:19;;;;;;;3.62;1.70;;;21.20;74.20;;;;;;2240488;56;20978;-72
2021/07/19 00:36:50;;;;;;;3.00;1.60;;;21.20;74.30;;;;;;2236622;56;21037;-71
2021/07/19 00:39:16;;;;;;;2.97;1.55;;;21.10;74.20;;;;;;2257768;56;20978;-71
2021/07/19 00:41:43;;;;;;;3.00;1.50;;;21.10;74.20;;;;;;2240069;56;21051;-70
2021/07/19 00:44:11;;;;;;;3.17;1.58;;;21.10;74.20;;;;;;2315270;56;21030;-70
2021/07/19 00:46:38;;;;;;;2.42;1.37;;;21.00;74.10;;;;;;2239918;56;21002;-71
2021/07/19 00:49:05;;;;;;;3.20;1.67;;;21.00;74.10;;;;;;2241352;56;20972;-71
2021/07/19 00:51:31;;;;;;;2.95;1.30;;;21.00;74.20;;;;;;2237754;55;21022;-71
2021/07/19 00:53:58;;;;;;;3.03;1.33;;;21.00;74.30;;;;;;2242208;56;21428;-70
2021/07/19 00:56:25;;;;;;;4.25;1.48;;;20.90;74.30;;;;;;2239875;56;21145;-73
2021/07/19 00:58:51;;;;;;;3.25;1.33;;;20.90;74.50;;;;;;2241590;56;20974;-71
2021/07/19 01:01:18;;;;;;;3.00;1.70;;;20.90;74.50;;;;;;2461214;56;20963;-71
2021/07/19 01:03:46;;;;;;;2.47;1.25;;;20.80;74.60;;;;;;2246957;56;21920;-72
2021/07/19 01:06:13;;;;;;;3.78;1.52;;;20.80;74.70;;;;;;2237212;56;20986;-72
2021/07/19 01:08:41;;;;;;;5.10;1.40;;;20.80;74.60;;;;;;2237305;56;20970;-72
2021/07/19 01:11:09;;;;;;;2.75;1.40;;;20.80;74.70;;;;;;2367047;56;21142;-73
2021/07/19 01:13:35;;;;;;;2.40;1.30;;;20.80;74.70;;;;;;2240750;56;20940;-72
2021/07/19 01:16:03;;;;;;;2.67;1.15;;;20.70;74.60;;;;;;2237768;56;21018;-71
2021/07/19 01:18:31;;;;;;;4.80;1.30;;;20.70;74.70;;;;;;2239486;56;21014;-70
2021/07/19 01:24:09;;;;;;;2.15;1.10;;;20.70;74.60;;;;;;2239650;56;21031;-73
2021/07/19 01:27:04;;;;;;;3.10;1.20;;;20.70;73.80;;;;;;2218730;56;21433;-72
2021/07/19 01:29:30;;;;;;;2.70;1.20;;;20.70;74.20;;;;;;2390835;55;21102;-72
2021/07/19 01:31:57;;;;;;;2.83;1.15;;;20.60;74.50;;;;;;2250033;55;21026;-71
2021/07/19 01:34:24;;;;;;;3.08;1.60;;;20.60;74.70;;;;;;2463554;56;21597;-72
2021/07/19 01:36:57;;;;;;;3.92;1.48;;;20.60;74.80;;;;;;2239712;56;21470;-72
2021/07/19 01:39:26;;;;;;;4.35;1.48;;;20.60;74.60;;;;;;2239569;56;20982;-70
2021/07/19 01:41:53;;;;;;;3.15;1.20;;;20.50;74.70;;;;;;2242529;56;21006;-73
2021/07/19 01:44:19;;;;;;;3.10;1.50;;;20.50;74.70;;;;;;2235684;56;20994;-70
2021/07/19 01:46:45;;;;;;;4.43;1.50;;;20.50;74.70;;;;;;2239555;56;20950;-70
2021/07/19 01:49:13;;;;;;;4.03;1.70;;;20.40;74.60;;;;;;2463852;56;21483;-70
2021/07/19 01:51:39;;;;;;;2.87;1.52;;;20.40;74.60;;;;;;2218587;57;21317;-70
2021/07/19 01:54:09;;;;;;;3.03;1.30;;;20.40;74.70;;;;;;2464151;56;21452;-70
2021/07/19 01:56:35;;;;;;;3.42;1.48;;;20.40;74.70;;;;;;2239753;56;20959;-69
2021/07/19 01:59:02;;;;;;;3.30;2.00;;;20.30;74.70;;;;;;2435322;56;20994;-72
2021/07/19 02:01:28;;;;;;;2.78;1.40;;;20.30;74.70;;;;;;2239309;56;20942;-71
2021/07/19 02:03:55;;;;;;;2.87;1.50;;;20.30;74.90;;;;;;2306481;56;21030;-71
2021/07/19 02:06:22;;;;;;;2.78;1.30;;;20.30;74.90;;;;;;2321607;56;20974;-70
2021/07/19 02:08:55;;;;;;;3.15;1.40;;;20.30;74.80;;;;;;2236381;56;20969;-70
2021/07/19 02:11:25;;;;;;;;;;;20.30;74.70;;;;;;2242376;56;21006;-70
2021/07/19 02:13:51;;;;;;;2.70;1.20;;;20.30;74.00;;;;;;2239069;56;20078;-70
2021/07/19 02:16:18;;;;;;;3.20;1.27;;;20.20;74.70;;;;;;2242520;56;20958;-70
2021/07/19 02:18:44;;;;;;;3.35;1.62;;;20.20;74.80;;;;;;2240570;56;21010;-71
2021/07/19 02:21:13;;;;;;;2.85;1.50;;;20.20;74.80;;;;;;2448268;55;20999;-72
2021/07/19 02:23:39;;;;;;;2.42;1.35;;;20.10;74.70;;;;;;2462938;56;21467;-71
2021/07/19 02:26:05;;;;;;;5.28;1.65;;;20.10;74.70;;;;;;2239168;56;20958;-70
2021/07/19 02:28:35;;;;;;;3.45;1.30;;;20.10;74.80;;;;;;2239525;56;20998;-70
2021/07/19 02:31:03;;;;;;;7.50;1.42;;;20.10;74.70;;;;;;2239038;56;20926;-71
2021/07/19 02:33:29;;;;;;;2.58;1.27;;;20.00;74.70;;;;;;2239056;56;21452;-70
2021/07/19 02:35:56;;;;;;;4.40;1.48;;;20.10;74.90;;;;;;2239400;56;21730;-70
2021/07/19 02:38:22;;;;;;;2.30;1.12;;;20.00;74.80;;;;;;2239376;56;21031;-71
2021/07/19 02:40:49;;;;;;;2.75;1.48;;;20.00;74.80;;;;;;2239899;56;20969;-71
2021/07/19 02:43:15;;;;;;;3.03;1.20;;;20.00;74.80;;;;;;2463622;56;21022;-70
2021/07/19 02:45:44;;;;;;;3.20;1.62;;;20.00;74.80;;;;;;2241582;56;21003;-72
2021/07/19 02:48:11;;;;;;;3.92;1.30;;;19.90;74.60;;;;;;2236847;56;21082;-70
2021/07/19 02:50:39;;;;;;;2.62;1.30;;;19.90;74.60;;;;;;2243354;56;21038;-70
2021/07/19 02:53:08;;;;;;;2.83;1.52;;;19.90;74.60;;;;;;2237227;56;20958;-70
2021/07/19 02:55:38;;;;;;;3.67;1.52;;;19.80;74.60;;;;;;2238248;56;20962;-71
2021/07/19 02:58:04;;;;;;;3.05;1.50;;;19.80;74.80;;;;;;2239615;56;20970;-70
2021/07/19 03:00:31;;;;;;;2.72;1.10;;;19.80;74.80;;;;;;2240333;56;21443;-71
2021/07/19 03:03:14;;;;;;;3.12;1.45;;;19.80;74.80;;;;;;2238183;56;20943;-71
2021/07/19 03:05:42;;;;;;;3.95;1.37;;;19.80;74.50;;;;;;2463726;56;21436;-71
2021/07/19 03:08:11;;;;;;;2.33;1.00;;;19.70;74.80;;;;;;2239675;56;20998;-70
2021/07/19 03:10:37;;;;;;;2.90;1.23;;;19.70;75.10;;;;;;2460163;55;21006;-72
2021/07/19 03:13:08;;;;;;;2.87;1.23;;;19.80;75.10;;;;;;2242945;56;21352;-71
2021/07/19 03:15:34;;;;;;;2.87;1.48;;;19.70;74.90;;;;;;2238682;56;21583;-70
2021/07/19 03:18:03;;;;;;;2.60;1.33;;;19.70;75.00;;;;;;2239066;56;20962;-71
2021/07/19 03:20:30;;;;;;;3.83;1.12;;;19.70;75.00;;;;;;2237836;56;20946;-70
2021/07/19 03:22:56;;;;;;;3.45;1.30;;;19.60;74.90;;;;;;2241664;56;21026;-71
2021/07/19 03:25:25;;;;;;;3.83;1.67;;;19.60;74.90;;;;;;2238448;56;21591;-71
2021/07/19 03:27:52;;;;;;;2.97;1.52;;;19.60;74.90;;;;;;2463850;56;20958;-72
2021/07/19 03:30:18;;;;;;;3.40;1.25;;;19.60;75.00;;;;;;2240169;56;21014;-72
2021/07/19 03:32:46;;;;;;;3.12;1.45;;;19.60;75.00;;;;;;2239601;56;21547;-71
2021/07/19 03:35:14;;;;;;;4.12;1.52;;;19.50;74.90;;;;;;2239165;56;21017;-70
2021/07/19 03:37:40;;;;;;;3.58;1.50;;;19.50;74.90;;;;;;2243757;56;21018;-70
2021/07/19 03:40:07;;;;;;;2.40;1.20;;;19.50;74.90;;;;;;2223248;55;21829;-71
2021/07/19 03:42:34;;;;;;;2.80;1.37;;;19.50;74.90;;;;;;2239614;56;21006;-71
2021/07/19 03:45:00;;;;;;;3.97;1.50;;;19.50;75.00;;;;;;2238826;56;20998;-71
2021/07/19 03:47:27;;;;;;;2.87;1.30;;;19.50;75.10;;;;;;2239942;56;20978;-72
2021/07/19 03:49:54;;;;;;;2.60;1.45;;;19.40;75.00;;;;;;2240158;56;20934;-70
2021/07/19 03:52:21;;;;;;;3.45;1.87;;;19.40;75.00;;;;;;2237934;56;20982;-70
2021/07/19 03:54:47;;;;;;;3.25;1.50;;;19.40;75.10;;;;;;2239583;56;21065;-70
2021/07/19 03:57:14;;;;;;;2.53;1.33;;;19.40;75.20;;;;;;2240477;56;20979;-70
2021/07/19 03:59:40;;;;;;;3.33;1.40;;;19.40;75.30;;;;;;2239156;56;20950;-69
2021/07/19 04:02:13;;;;;;;3.72;1.80;;;19.40;75.30;;;;;;2238701;56;21034;-70
2021/07/19 04:04:42;;;;;;;4.50;1.62;;;19.40;75.20;;;;;;2241052;56;20946;-70
2021/07/19 04:07:10;;;;;;;3.55;1.70;;;19.40;75.30;;;;;;2346275;56;20979;-73
2021/07/19 04:09:39;;;;;;;4.12;2.12;;;19.40;75.30;;;;;;2407673;56;20970;-71
2021/07/19 04:12:08;;;;;;;3.78;2.10;;;19.40;75.10;;;;;;2240478;56;21025;-70
2021/07/19 04:14:35;;;;;;;2.83;1.45;;;19.40;75.30;;;;;;2237961;56;21720;-70
2021/07/19 04:17:01;;;;;;;5.35;1.90;;;19.30;75.30;;;;;;2238795;56;21055;-70
2021/07/19 04:19:28;;;;;;;3.10;1.52;;;19.30;75.20;;;;;;2238577;56;20974;-70
2021/07/19 04:21:54;;;;;;;3.97;2.15;;;19.30;75.20;;;;;;2280321;56;21091;-71
2021/07/19 04:24:20;;;;;;;3.47;1.80;;;19.30;75.40;;;;;;2236120;56;21082;-71
2021/07/19 04:26:47;;;;;;;3.67;1.98;;;19.30;75.50;;;;;;2378852;55;21841;-71
2021/07/19 04:29:22;;;;;;;3.67;1.95;;;19.30;75.60;;;;;;2236269;56;21336;-73
2021/07/19 04:31:55;;;;;;;3.75;1.60;;;19.30;75.40;;;;;;2239120;56;21772;-71
2021/07/19 04:34:29;;;;;;;3.22;1.58;;;19.30;75.40;;;;;;2238933;56;21066;-70
2021/07/19 04:37:06;;;;;;;4.37;1.98;;;19.30;75.60;;;;;;2281220;56;20935;-71
2021/07/19 04:39:33;;;;;;;3.58;1.62;;;19.30;75.50;;;;;;2455648;55;21519;-71
2021/07/19 04:42:03;;;;;;;3.00;1.67;;;19.30;76.60;;;;;;2236627;56;20978;-70
2021/07/19 04:44:30;;;;;;;3.42;1.90;;;19.30;75.90;;;;;;2221532;57;20955;-73
2021/07/19 04:46:56;;;;;;;3.70;1.95;;;19.30;76.10;;;;;;2238280;56;20998;-71
2021/07/19 04:49:23;;;;;;;3.45;2.10;;;19.30;76.20;;;;;;2240496;56;20974;-70
2021/07/19 04:51:49;;;;;;;5.25;2.72;;;19.30;76.30;;;;;;2462338;55;21043;-71
2021/07/19 04:54:27;;;;;;;7.20;2.80;;;19.30;76.40;;;;;;2294565;56;21230;-72
2021/07/19 04:57:00;;;;;;;6.22;3.00;;;19.40;76.40;;;;;;2255695;56;20965;-71
2021/07/19 04:59:32;;;;;;;4.80;2.50;;;19.40;76.70;;;;;;2242312;56;21007;-73
2021/07/19 05:01:58;;;;;;;4.30;2.20;;;19.40;76.80;;;;;;2238568;56;20926;-71
2021/07/19 05:04:25;;;;;;;3.92;2.20;;;19.40;76.90;;;;;;2420989;56;21489;-72
2021/07/19 05:06:53;;;;;;;4.70;2.53;;;19.50;77.00;;;;;;2464301;56;21759;-71
2021/07/19 05:09:20;;;;;;;3.87;2.00;;;19.50;77.00;;;;;;2239469;56;21298;-72
2021/07/19 05:11:46;;;;;;;3.37;1.90;;;19.50;77.00;;;;;;2309084;56;20974;-70
2021/07/19 05:14:13;;;;;;;3.95;2.35;;;19.60;77.10;;;;;;2237978;56;21006;-70
2021/07/19 05:16:40;;;;;;;3.90;2.33;;;19.60;77.10;;;;;;2239741;56;20927;-70
2021/07/19 05:19:07;;;;;;;4.45;2.50;;;19.60;77.20;;;;;;2241140;56;20940;-73
2021/07/19 05:21:34;;;;;;;4.55;2.50;;;19.70;77.40;;;;;;2218052;57;21026;-69
2021/07/19 05:24:03;;;;;;;3.85;2.00;;;19.70;77.50;;;;;;2242182;56;21039;-72
2021/07/19 05:26:30;;;;;;;3.47;2.15;;;19.70;77.50;;;;;;2238310;56;20978;-70
2021/07/19 05:28:59;;;;;;;3.47;2.00;;;19.80;77.70;;;;;;2239540;56;21018;-69
2021/07/19 05:31:26;;;;;;;3.72;2.10;;;19.80;77.80;;;;;;2239022;56;21066;-70
2021/07/19 05:33:52;;;;;;;4.35;1.80;;;19.80;77.80;;;;;;2441368;56;20942;-70
2021/07/19 05:36:19;;;;;;;3.33;1.95;;;19.90;77.90;;;;;;2239774;56;20987;-71
2021/07/19 05:38:45;;;;;;;2.75;1.60;;;20.00;78.00;;;;;;2239832;56;21964;-71
2021/07/19 05:41:11;;;;;;;3.65;2.03;;;20.00;78.10;;;;;;2238577;56;21042;-71
2021/07/19 05:43:38;;;;;;;3.90;2.05;;;20.00;78.10;;;;;;2241922;56;20974;-69
2021/07/19 05:46:04;;;;;;;4.35;2.25;;;20.10;78.30;;;;;;2242170;56;20950;-69
2021/07/19 05:48:30;;;;;;;4.18;2.42;;;20.20;78.40;;;;;;2241648;56;21025;-72
2021/07/19 05:50:57;;;;;;;5.37;2.37;;;20.20;78.40;;;;;;2237122;56;20986;-73
2021/07/19 05:53:24;;;;;;;3.53;2.17;;;20.30;78.50;;;;;;2239745;56;21768;-71
2021/07/19 05:55:50;;;;;;;4.30;2.30;;;20.30;78.60;;;;;;2240191;56;21030;-73
2021/07/19 05:58:18;;;;;;;4.57;2.60;;;20.40;78.70;;;;;;2252097;55;21081;-71
2021/07/19 06:00:44;;;;;;;5.20;2.60;;;20.40;78.70;;;;;;2247384;55;20990;-71
2021/07/19 06:03:10;;;;;;;4.43;2.55;;;20.50;78.90;;;;;;2235675;56;21762;-71
2021/07/19 06:05:37;;;;;;;4.20;2.55;;;20.60;79.00;;;;;;2220214;57;20950;-70
2021/07/19 06:08:04;;;;;;;5.80;3.00;;;20.70;79.10;;;;;;2239772;56;20946;-70
2021/07/19 06:10:31;;;;;;;4.53;2.25;;;20.70;79.10;;;;;;2239485;56;21042;-71
2021/07/19 06:12:57;;;;;;;4.80;2.97;;;20.80;79.20;;;;;;2276361;56;20938;-71
2021/07/19 06:15:26;;;;;;;5.03;2.80;;;20.90;79.40;;;;;;2239183;56;20962;-71
2021/07/19 06:17:54;;;;;;;5.12;2.58;;;20.90;79.40;;;;;;2238191;56;21053;-71
2021/07/19 06:20:28;;;;;;;4.22;2.58;;;21.00;79.40;;;;;;2238817;56;20985;-73
2021/07/19 06:23:00;;;;;;;5.22;2.42;;;21.10;79.60;;;;;;2238619;56;20970;-70
2021/07/19 06:25:30;;;;;;;4.35;2.80;;;21.20;79.70;;;;;;2335195;56;21008;-72
2021/07/19 06:27:57;;;;;;;4.90;2.92;;;21.20;79.70;;;;;;2235603;56;20954;-69
2021/07/19 06:30:23;;;;;;;4.60;2.35;;;21.30;79.70;;;;;;2239866;56;20978;-71
2021/07/19 06:32:49;;;;;;;4.37;2.65;;;21.40;79.80;;;;;;2240036;56;20962;-70
2021/07/19 06:35:15;;;;;;;5.15;2.65;;;21.50;80.00;;;;;;2239611;56;21010;-71
2021/07/19 06:37:42;;;;;;;4.95;2.90;;;21.60;80.00;;;;;;2244483;56;21017;-71
2021/07/19 06:40:08;;;;;;;6.05;3.00;;;21.70;80.00;;;;;;2240545;56;20979;-72
2021/07/19 06:42:36;;;;;;;5.60;2.70;;;21.80;80.10;;;;;;2235650;56;20966;-71
2021/07/19 06:45:08;;;;;;;4.22;2.65;;;21.80;79.90;;;;;;2254234;56;20986;-73
2021/07/19 06:47:34;;;;;;;4.37;2.87;;;21.90;80.00;;;;;;2239667;55;21009;-71
2021/07/19 06:50:00;;;;;;;5.22;3.40;;;22.00;80.10;;;;;;2237520;56;20994;-70
2021/07/19 06:52:29;;;;;;;4.55;2.95;;;22.10;80.10;;;;;;2462822;56;20954;-73
2021/07/19 06:54:56;;;;;;;4.00;2.55;;;22.20;80.30;;;;;;2240253;56;21011;-73
2021/07/19 06:57:23;;;;;;;4.72;2.70;;;22.30;80.40;;;;;;2334209;55;21046;-72
2021/07/19 06:59:49;;;;;;;4.15;2.62;;;22.40;80.50;;;;;;2277018;55;21011;-71
2021/07/19 07:02:15;;;;;;;5.55;3.40;;;22.50;80.60;;;;;;2239248;56;20930;-73
2021/07/19 07:04:42;;;;;;;5.28;3.05;;;22.70;80.80;;;;;;2238497;56;20974;-74
2021/07/19 07:07:09;;;;;;;4.50;2.55;;;22.80;80.80;;;;;;2247395;55;20981;-71
2021/07/19 07:09:35;;;;;;;7.37;2.80;;;22.90;80.90;;;;;;2226422;55;21057;-71
2021/07/19 07:12:12;;;;;;;4.45;2.90;;;23.00;81.00;;;;;;2270816;56;21022;-71
2021/07/19 07:14:38;;;;;;;4.07;2.67;;;23.20;81.30;;;;;;2239035;56;21002;-72
2021/07/19 07:17:04;;;;;;;6.30;2.85;;;23.30;81.40;;;;;;2257447;56;21042;-72
2021/07/19 07:19:31;;;;;;;5.05;2.97;;;23.40;81.30;;;;;;2238714;56;20947;-72
2021/07/19 07:21:59;;;;;;;3.75;2.45;;;23.50;81.40;;;;;;2239805;56;20939;-72
2021/07/19 07:24:25;;;;;;;4.47;2.42;;;23.70;81.20;;;;;;2242125;56;20954;-72
2021/07/19 07:26:52;;;;;;;4.25;2.87;;;23.80;81.00;;;;;;2275977;56;21030;-71
2021/07/19 07:29:21;;;;;;;4.57;2.83;;;23.90;80.60;;;;;;2218470;57;21070;-74
2021/07/19 07:31:47;;;;;;;5.62;2.80;;;24.10;79.70;;;;;;2249106;56;20990;-72
2021/07/19 07:34:13;;;;;;;4.68;3.08;;;24.20;79.90;;;;;;2236351;56;21310;-72
2021/07/19 07:36:40;;;;;;;4.22;2.65;;;24.30;79.80;;;;;;2243086;56;20998;-72
2021/07/19 07:39:06;;;;;;;4.82;2.87;;;24.40;79.60;;;;;;2237439;56;20958;-71
2021/07/19 07:41:32;;;;;;;3.42;2.33;;;24.40;79.40;;;;;;2241072;56;21026;-70
2021/07/19 07:43:59;;;;;;;4.12;2.65;;;24.50;79.10;;;;;;2237969;56;21435;-70
2021/07/19 07:46:25;;;;;;;5.65;2.78;;;24.60;79.00;;;;;;2240621;56;21004;-71
2021/07/19 07:48:52;;;;;;;5.82;2.62;;;24.70;78.90;;;;;;2238369;56;20962;-73
2021/07/19 07:51:18;;;;;;;4.43;2.25;;;24.70;78.70;;;;;;2282938;56;20986;-71
2021/07/19 07:53:45;;;;;;;4.75;2.60;;;24.80;78.40;;;;;;2238866;56;20990;-72
2021/07/19 07:56:11;;;;;;;4.10;2.30;;;24.90;78.40;;;;;;2241799;56;20994;-72
2021/07/19 07:58:38;;;;;;;4.22;2.40;;;24.90;78.30;;;;;;2242669;56;21048;-73
2021/07/19 08:01:05;;;;;;;4.37;2.20;;;25.00;78.40;;;;;;2260124;55;21404;-71
2021/07/19 08:03:31;;;;;;;3.80;2.40;;;25.00;78.40;;;;;;2244539;56;21729;-72
2021/07/19 08:05:58;;;;;;;3.58;1.98;;;25.10;78.30;;;;;;2278390;56;21018;-71
2021/07/19 08:08:24;;;;;;;4.78;2.25;;;25.20;78.10;;;;;;2263477;56;21057;-70
2021/07/19 08:10:50;;;;;;;4.55;2.50;;;25.20;78.00;;;;;;2238712;56;21015;-73
2021/07/19 08:13:16;;;;;;;4.87;2.60;;;25.30;78.10;;;;;;2351346;56;20998;-71
2021/07/19 08:15:47;;;;;;;5.03;2.47;;;25.40;78.20;;;;;;2241413;56;20945;-71
2021/07/19 08:18:15;;;;;;;3.42;1.92;;;25.50;78.20;;;;;;2457818;55;20957;-72
2021/07/19 08:20:44;;;;;;;3.60;2.20;;;25.50;78.00;;;;;;2302422;56;20974;-71
2021/07/19 08:23:11;;;;;;;4.32;1.98;;;25.60;77.90;;;;;;2462247;55;21027;-73
2021/07/19 08:25:37;;;;;;;5.18;2.55;;;25.70;77.80;;;;;;2236822;56;21571;-72
2021/07/19 08:28:04;;;;;;;4.00;2.22;;;25.80;77.50;;;;;;2241832;56;20962;-73
2021/07/19 08:30:31;;;;;;;5.40;2.75;;;25.90;77.30;;;;;;2254052;56;21990;-74
2021/07/19 08:32:58;;;;;;;4.32;2.12;;;25.90;77.20;;;;;;2239799;56;21520;-73
2021/07/19 08:35:25;;;;;;;4.43;2.60;;;26.00;77.20;;;;;;2431486;55;21006;-70
2021/07/19 08:37:56;;;;;;;5.07;2.72;;;26.00;77.00;;;;;;2389727;56;20946;-72
2021/07/19 08:40:22;;;;;;;5.22;2.53;;;26.10;76.70;;;;;;2246038;56;20930;-72
2021/07/19 08:42:49;;;;;;;6.05;2.55;;;26.20;76.70;;;;;;2237825;56;21463;-71
2021/07/19 08:45:15;;;;;;;4.78;2.67;;;26.20;76.50;;;;;;2238259;56;20946;-72
2021/07/19 08:47:43;;;;;;;4.00;2.37;;;26.30;76.30;;;;;;2244225;56;20958;-72
2021/07/19 08:50:11;;;;;;;5.65;2.87;;;26.30;76.00;;;;;;2250589;55;21033;-71
2021/07/19 08:52:37;;;;;;;4.72;2.70;;;26.30;75.80;;;;;;2241463;55;21007;-73
2021/07/19 08:55:05;;;;;;;4.87;2.60;;;26.40;76.00;;;;;;2371555;55;20966;-71
2021/07/19 08:57:32;;;;;;;4.20;2.58;;;26.40;76.10;;;;;;2236407;56;20962;-71
2021/07/19 09:00:01;;;;;;;6.80;2.67;;;26.50;76.20;;;;;;2218837;57;21003;-72
2021/07/19 09:02:30;;;;;;;4.05;2.65;;;26.60;75.70;;;;;;2239586;56;21006;-73
2021/07/19 09:04:56;;;;;;;3.78;2.33;;;26.70;75.70;;;;;;2239881;56;21018;-72
2021/07/19 09:07:23;;;;;;;4.65;2.90;;;26.80;76.60;;;;;;2339362;55;20945;-71
2021/07/19 09:09:50;;;;;;;4.75;2.70;;;26.90;76.70;;;;;;2237652;56;21034;-72
2021/07/19 09:12:17;;;;;;;5.72;2.58;;;27.00;76.50;;;;;;2454605;55;21502;-72
2021/07/19 09:14:47;;;;;;;5.00;2.45;;;27.10;76.40;;;;;;2443000;55;21344;-71
2021/07/19 09:17:23;;;;;;;4.72;2.90;;;27.20;75.40;;;;;;2235762;56;20986;-69
2021/07/19 09:19:50;;;;;;;5.25;2.60;;;27.20;74.50;;;;;;2401851;56;20990;-69
2021/07/19 09:22:27;;;;;;;3.15;2.05;;;27.30;75.70;;;;;;2238257;56;20990;-69
2021/07/19 09:25:09;;;;;;;4.57;2.30;;;27.40;73.90;;;;;;2239240;56;21029;-69
2021/07/19 09:27:35;;;;;;;3.70;2.22;;;27.50;74.10;;;;;;2242078;56;21329;-70
2021/07/19 09:30:16;;;;;;;3.95;2.40;;;27.60;75.50;;;;;;2283142;56;20943;-70
2021/07/19 09:34:34;;;;;;;3.75;2.42;;;27.70;74.00;;;;;;2237846;56;21011;-70
2021/07/19 09:37:05;;;;;;;4.43;2.15;;;27.80;73.70;;;;;;2243486;56;21421;-70
2021/07/19 09:39:54;;;;;;;4.25;2.25;;;27.90;74.50;;;;;;2236133;56;21503;-71
2021/07/19 09:42:22;;;;;;;3.58;2.40;;;27.90;72.80;;;;;;2239591;56;21010;-70
2021/07/19 09:44:53;;;;;;;3.75;2.12;;;27.90;74.30;;;;;;2239299;56;20962;-69
2021/07/19 09:47:30;;;;;;;4.10;2.50;;;28.00;73.60;;;;;;2342015;56;21805;-71
2021/07/19 09:49:56;;;;;;;3.92;2.47;;;28.00;73.90;;;;;;2285011;55;20949;-69
2021/07/19 09:52:31;;;;;;;3.70;2.20;;;28.00;73.50;;;;;;2251510;56;21382;-71
2021/07/19 09:54:57;;;;;;;3.65;2.30;;;28.10;73.60;;;;;;2239891;56;20962;-70
2021/07/19 09:57:24;;;;;;;3.67;2.40;;;28.10;73.60;;;;;;2239936;56;21356;-72
2021/07/19 09:59:58;;;;;;;4.32;2.58;;;28.10;73.80;;;;;;2239283;56;21425;-68
2021/07/19 10:02:34;;;;;;;3.95;2.30;;;28.20;73.10;;;;;;2353111;56;21325;-69
2021/07/19 10:05:02;;;;;;;3.60;2.20;;;28.30;72.50;;;;;;2239943;56;20953;-70
2021/07/19 10:07:28;;;;;;;4.80;2.80;;;28.30;74.40;;;;;;2239745;56;21035;-69
2021/07/19 10:09:56;;;;;;;4.57;2.15;;;28.30;73.80;;;;;;2388711;56;21432;-68
2021/07/19 10:12:24;;;;;;;3.95;2.50;;;28.40;73.50;;;;;;2243263;56;21032;-69
2021/07/19 10:14:50;;;;;;;3.97;2.53;;;28.50;73.20;;;;;;2239521;56;20969;-69
2021/07/19 10:17:16;;;;;;;3.70;2.40;;;28.50;72.90;;;;;;2314219;56;20946;-69
2021/07/19 10:19:42;;;;;;;3.90;2.55;;;28.60;73.00;;;;;;2239485;56;21348;-71
2021/07/19 10:22:12;;;;;;;4.57;2.50;;;28.60;72.90;;;;;;2240229;56;21022;-68
2021/07/19 10:24:45;;;;;;;4.25;2.80;;;28.70;72.40;;;;;;2218352;57;20970;-69
2021/07/19 10:27:21;;;;;;;7.18;2.40;;;28.70;71.50;;;;;;2324288;56;21387;-69
2021/07/19 10:29:48;;;;;;;4.12;2.22;;;28.80;71.20;;;;;;2242174;56;21061;-70
2021/07/19 10:32:24;;;;;;;4.68;2.45;;;28.80;72.10;;;;;;2235354;56;21025;-71
2021/07/19 10:34:52;;;;;;;4.20;2.30;;;28.80;71.20;;;;;;2299498;56;21246;-70
2021/07/19 10:37:56;;;;;;;4.18;2.17;;;28.90;72.10;;;;;;2265378;56;21750;-70
2021/07/19 10:40:27;;;;;;;4.28;2.42;;;28.90;71.70;;;;;;2335101;55;21070;-69
2021/07/19 10:43:04;;;;;;;3.92;2.35;;;29.00;71.60;;;;;;2243495;56;20950;-69
2021/07/19 10:45:43;;;;;;;3.58;2.17;;;29.10;70.90;;;;;;2237743;56;20986;-69
2021/07/19 10:48:10;;;;;;;3.42;2.35;;;29.10;70.90;;;;;;2218926;56;21936;-71
2021/07/19 10:50:38;;;;;;;3.75;2.50;;;29.10;71.80;;;;;;2239826;56;20958;-70
2021/07/19 10:53:17;;;;;;;3.85;2.20;;;29.20;71.20;;;;;;2240193;56;21395;-71
2021/07/19 10:55:44;;;;;;;3.60;2.12;;;29.20;70.20;;;;;;2239853;56;21546;-69
2021/07/19 10:58:35;;;;;;;3.85;2.55;;;29.30;71.70;;;;;;2328964;56;21415;-70
2021/07/19 11:01:01;;;;;;;3.97;2.08;;;29.30;69.80;;;;;;2244806;56;21014;-69
2021/07/19 11:03:38;;;;;;;3.97;2.17;;;29.40;71.50;;;;;;2328364;55;21030;-70
2021/07/19 11:06:04;;;;;;;3.92;2.40;;;29.40;69.50;;;;;;2367182;56;22465;-69
2021/07/19 11:08:30;;;;;;;3.70;2.20;;;29.40;70.90;;;;;;2240328;56;20947;-69
2021/07/19 11:10:58;;;;;;;3.72;2.30;;;29.50;70.90;;;;;;2239987;56;20986;-70
2021/07/19 11:13:29;;;;;;;4.57;2.40;;;29.50;70.80;;;;;;2239713;56;20978;-68
2021/07/19 11:15:55;;;;;;;4.47;2.55;;;29.60;70.80;;;;;;2296889;56;21042;-69
2021/07/19 11:18:25;;;;;;;4.43;2.28;;;29.70;70.90;;;;;;2364638;56;21923;-69
2021/07/19 11:20:52;;;;;;;3.90;2.50;;;29.70;70.30;;;;;;2235359;56;21341;-69
2021/07/19 11:23:51;;;;;;;3.25;2.05;;;29.70;70.20;;;;;;2244792;56;20949;-70
2021/07/19 11:26:25;;;;;;;4.20;2.20;;;29.80;68.90;;;;;;2329689;56;21035;-70
2021/07/19 11:28:55;;;;;;;9.50;2.97;;;29.80;68.90;;;;;;2239896;56;20954;-69
2021/07/19 11:31:28;;;;;;;5.78;2.90;;;29.80;69.60;;;;;;2240287;56;22173;-71
2021/07/19 11:34:02;;;;;;;3.53;2.33;;;29.80;68.10;;;;;;2293703;55;20930;-72
2021/07/19 11:36:47;;;;;;;3.87;2.20;;;29.90;67.80;;;;;;2239609;56;21054;-68
2021/07/19 11:39:17;;;;;;;3.55;2.30;;;29.80;67.90;;;;;;2240795;56;21331;-69
2021/07/19 11:41:43;;;;;;;3.72;2.30;;;29.90;69.10;;;;;;2218708;57;21086;-69
2021/07/19 11:44:14;;;;;;;3.78;2.08;;;29.90;69.60;;;;;;2244274;55;20946;-68
2021/07/19 11:46:41;;;;;;;7.65;2.75;;;29.90;68.70;;;;;;2288435;56;20970;-68
2021/07/19 11:49:10;;;;;;;5.40;2.53;;;29.90;69.60;;;;;;2359589;55;20990;-68
2021/07/19 11:51:40;;;;;;;3.55;2.33;;;30.00;68.70;;;;;;2241922;56;21069;-70
2021/07/19 11:54:09;;;;;;;5.10;2.80;;;30.00;68.00;;;;;;2272687;56;21412;-70
2021/07/19 11:56:39;;;;;;;3.47;2.28;;;30.10;68.20;;;;;;2238291;56;21410;-70
2021/07/19 11:59:05;;;;;;;3.70;2.42;;;30.10;68.40;;;;;;2252548;56;21023;-69
2021/07/19 12:01:34;;;;;;;3.65;2.30;;;30.10;68.70;;;;;;2239404;56;20975;-71
2021/07/19 12:04:04;;;;;;;4.62;2.20;;;30.10;68.30;;;;;;2239586;56;21018;-71
2021/07/19 12:06:31;;;;;;;3.90;2.15;;;30.10;68.30;;;;;;2239218;56;21086;-70
2021/07/19 12:09:02;;;;;;;4.57;2.22;;;30.20;68.30;;;;;;2266213;56;20966;-69
2021/07/19 12:11:29;;;;;;;3.87;2.20;;;30.10;67.70;;;;;;2238979;56;21024;-70
2021/07/19 12:13:57;;;;;;;4.45;2.03;;;30.20;67.70;;;;;;2264545;56;21590;-70
2021/07/19 12:16:37;;;;;;;4.75;2.53;;;30.20;67.80;;;;;;2314127;56;21554;-70
2021/07/19 12:19:07;;;;;;;3.85;2.40;;;30.20;66.50;;;;;;2239060;56;21428;-70
2021/07/19 12:21:47;;;;;;;5.57;2.05;;;30.30;68.00;;;;;;2239285;56;21634;-69
2021/07/19 12:24:15;;;;;;;3.80;2.20;;;30.30;66.90;;;;;;2299184;56;20922;-72
2021/07/19 12:26:50;;;;;;;3.10;1.67;;;30.30;67.70;;;;;;2239094;56;20962;-70
2021/07/19 12:29:39;;;;;;;4.00;2.10;;;30.40;66.80;;;;;;2238842;56;21363;-69
2021/07/19 12:32:06;;;;;;;4.35;1.70;;;30.40;66.70;;;;;;2396413;56;20982;-71
2021/07/19 12:34:40;;;;;;;4.12;2.10;;;30.40;67.70;;;;;;2326349;55;20954;-70
2021/07/19 12:37:08;;;;;;;3.15;1.87;;;30.50;66.70;;;;;;2259019;56;21002;-70
2021/07/19 12:39:53;;;;;;;3.80;2.00;;;30.50;67.10;;;;;;2243609;56;20987;-70
2021/07/19 12:42:25;;;;;;;3.62;1.83;;;30.50;64.80;;;;;;2221912;57;21257;-71
2021/07/19 12:44:52;;;;;;;3.80;2.17;;;30.50;65.90;;;;;;2242684;56;21520;-67
2021/07/19 12:47:19;;;;;;;4.65;2.17;;;30.50;65.70;;;;;;2324849;56;20978;-70
2021/07/19 12:49:46;;;;;;;2.97;1.60;;;30.50;65.60;;;;;;2281571;56;21446;-71
2021/07/19 12:52:20;;;;;;;3.05;1.60;;;30.50;65.80;;;;;;2239838;56;20966;-68
2021/07/19 12:55:08;;;;;;;3.37;1.60;;;30.60;64.40;;;;;;2461111;56;21408;-71
2021/07/19 12:57:36;;;;;;;3.05;1.40;;;30.60;65.50;;;;;;2243226;56;20994;-72
2021/07/19 13:00:11;;;;;;;3.30;1.60;;;30.60;65.80;;;;;;2241594;55;20950;-71
2021/07/19 13:02:37;;;;;;;2.95;1.35;;;30.60;64.50;;;;;;2224139;56;21462;-71